sensor_id;sensor_type;location;lat;lon;timestamp;pressure;altitude;pressure_sealevel;temperature;humidity
4858;BME280;58975;51.978;8.472;2023-01-25T00:04:20;102397.28;;;-0.33;100.00
4858;BME280;58975;51.978;8.472;2023-01-25T00:09:17;102397.28;;;-0.33;100.00
4858;BME280;58975;51.978;8.472;2023-01-25T00:14:15;102389.44;;;-0.34;100.00
4858;BME280;58975;51.978;8.472;2023-01-25T00:19:11;102382.47;;;-0.32;100.00
4858;BME280;58975;51.978;8.472;2023-01-25T00:24:08;102381.56;;;-0.34;100.00
4858;BME280;58975;51.978;8.472;2023-01-25T00:29:07;102368.53;;;-0.47;100.00
4858;BME280;58975;51.978;8.472;2023-01-25T00:39:19;102358.91;;;-0.35;100.00
4858;BME280;58975;51.978;8.472;2023-01-25T00:44:16;102344.94;;;-0.36;100.00
4858;BME280;58975;51.978;8.472;2023-01-25T00:49:25;102344.97;;;-0.42;100.00
4858;BME280;58975;51.978;8.472;2023-01-25T00:54:22;102337.09;;;-0.36;100.00
4858;BME280;58975;51.978;8.472;2023-01-25T00:59:18;102338.84;;;-0.42;100.00
4858;BME280;58975;51.978;8.472;2023-01-25T01:04:15;102342.38;;;-0.47;100.00
4858;BME280;58975;51.978;8.472;2023-01-25T01:09:16;102340.63;;;-0.44;100.00
4858;BME280;58975;51.978;8.472;2023-01-25T01:14:13;102333.59;;;-0.36;100.00
4858;BME280;58975;51.978;8.472;2023-01-25T01:19:09;102337.06;;;-0.31;100.00
4858;BME280;58975;51.978;8.472;2023-01-25T01:24:08;102339.75;;;-0.50;100.00
4858;BME280;58975;51.978;8.472;2023-01-25T01:29:05;102338.06;;;-0.58;100.00
4858;BME280;58975;51.978;8.472;2023-01-25T01:34:01;102337.19;;;-0.59;100.00
4858;BME280;58975;51.978;8.472;2023-01-25T01:38:58;102337.97;;;-0.43;100.00
4858;BME280;58975;51.978;8.472;2023-01-25T01:43:55;102336.25;;;-0.45;100.00
4858;BME280;58975;51.978;8.472;2023-01-25T01:54:17;102344.13;;;-0.45;100.00
4858;BME280;58975;51.978;8.472;2023-01-25T01:59:17;102338.81;;;-0.33;100.00
4858;BME280;58975;51.978;8.472;2023-01-25T02:04:17;102340.56;;;-0.34;100.00
4858;BME280;58975;51.978;8.472;2023-01-25T02:09:18;102336.19;;;-0.35;100.00
4858;BME280;58975;51.978;8.472;2023-01-25T02:14:16;102331.00;;;-0.42;100.00
4858;BME280;58975;51.978;8.472;2023-01-25T02:19:23;102328.38;;;-0.42;100.00
4858;BME280;58975;51.978;8.472;2023-01-25T02:24:29;102321.41;;;-0.47;100.00
4858;BME280;58975;51.978;8.472;2023-01-25T02:29:29;102320.56;;;-0.44;100.00
4858;BME280;58975;51.978;8.472;2023-01-25T02:34:25;102320.53;;;-0.39;100.00
4858;BME280;58975;51.978;8.472;2023-01-25T02:39:22;102314.41;;;-0.38;100.00
4858;BME280;58975;51.978;8.472;2023-01-25T02:44:27;102316.16;;;-0.37;100.00
4858;BME280;58975;51.978;8.472;2023-01-25T02:49:27;102304.84;;;-0.41;100.00
4858;BME280;58975;51.978;8.472;2023-01-25T02:54:24;102302.19;;;-0.36;100.00
4858;BME280;58975;51.978;8.472;2023-01-25T02:59:22;102291.69;;;-0.33;100.00
4858;BME280;58975;51.978;8.472;2023-01-25T03:04:18;102289.94;;;-0.34;100.00
4858;BME280;58975;51.978;8.472;2023-01-25T03:09:15;102284.78;;;-0.43;100.00
4858;BME280;58975;51.978;8.472;2023-01-25T03:14:11;102275.19;;;-0.46;100.00
4858;BME280;58975;51.978;8.472;2023-01-25T03:19:08;102284.81;;;-0.53;100.00
4858;BME280;58975;51.978;8.472;2023-01-25T03:24:04;102267.44;;;-0.60;100.00
4858;BME280;58975;51.978;8.472;2023-01-25T03:29:01;102256.16;;;-0.71;100.00
4858;BME280;58975;51.978;8.472;2023-01-25T03:33:57;102243.97;;;-0.79;100.00
4858;BME280;58975;51.978;8.472;2023-01-25T03:38:54;102235.16;;;-0.60;100.00
4858;BME280;58975;51.978;8.472;2023-01-25T03:43:50;102232.50;;;-0.53;100.00
4858;BME280;58975;51.978;8.472;2023-01-25T03:48:47;102223.88;;;-0.73;100.00
4858;BME280;58975;51.978;8.472;2023-01-25T03:53:43;102221.25;;;-0.68;100.00
4858;BME280;58975;51.978;8.472;2023-01-25T03:58:39;102219.47;;;-0.65;100.00
4858;BME280;58975;51.978;8.472;2023-01-25T04:03:36;102215.09;;;-0.63;100.00
4858;BME280;58975;51.978;8.472;2023-01-25T04:08:33;102212.47;;;-0.63;100.00
4858;BME280;58975;51.978;8.472;2023-01-25T04:13:29;102210.69;;;-0.55;100.00
4858;BME280;58975;51.978;8.472;2023-01-25T04:18:26;102209.78;;;-0.51;100.00
4858;BME280;58975;51.978;8.472;2023-01-25T04:23:24;102208.06;;;-0.52;100.00
4858;BME280;58975;51.978;8.472;2023-01-25T04:28:21;102205.38;;;-0.39;100.00
4858;BME280;58975;51.978;8.472;2023-01-25T04:33:18;102201.97;;;-0.54;100.00
4858;BME280;58975;51.978;8.472;2023-01-25T04:38:15;102199.44;;;-0.69;100.00
4858;BME280;58975;51.978;8.472;2023-01-25T04:43:13;102198.53;;;-0.65;100.00
4858;BME280;58975;51.978;8.472;2023-01-25T04:48:12;102200.19;;;-0.50;100.00
4858;BME280;58975;51.978;8.472;2023-01-25T04:53:10;102202.84;;;-0.58;100.00
4858;BME280;58975;51.978;8.472;2023-01-25T04:58:07;102187.22;;;-0.70;100.00
4858;BME280;58975;51.978;8.472;2023-01-25T05:03:03;102199.38;;;-0.63;100.00
4858;BME280;58975;51.978;8.472;2023-01-25T05:07:59;102194.94;;;-0.50;100.00
4858;BME280;58975;51.978;8.472;2023-01-25T05:12:56;102194.94;;;-0.44;100.00
4858;BME280;58975;51.978;8.472;2023-01-25T05:17:52;102187.91;;;-0.42;100.00
4858;BME280;58975;51.978;8.472;2023-01-25T05:22:49;102188.00;;;-0.54;100.00
4858;BME280;58975;51.978;8.472;2023-01-25T05:27:45;102190.75;;;-0.71;100.00
4858;BME280;58975;51.978;8.472;2023-01-25T05:32:41;102189.00;;;-0.72;100.00
4858;BME280;58975;51.978;8.472;2023-01-25T05:37:38;102186.56;;;-1.02;100.00
4858;BME280;58975;51.978;8.472;2023-01-25T05:42:34;102189.16;;;-1.05;100.00
4858;BME280;58975;51.978;8.472;2023-01-25T05:47:31;102179.50;;;-0.92;100.00
4858;BME280;58975;51.978;8.472;2023-01-25T05:52:27;102184.72;;;-0.86;100.00
4858;BME280;58975;51.978;8.472;2023-01-25T05:57:23;102184.78;;;-1.00;100.00
4858;BME280;58975;51.978;8.472;2023-01-25T06:02:20;102185.59;;;-0.87;100.00
4858;BME280;58975;51.978;8.472;2023-01-25T06:07:16;102175.91;;;-0.69;100.00
4858;BME280;58975;51.978;8.472;2023-01-25T06:12:12;102180.31;;;-0.77;100.00
4858;BME280;58975;51.978;8.472;2023-01-25T06:17:09;102181.16;;;-0.73;100.00
4858;BME280;58975;51.978;8.472;2023-01-25T06:22:06;102169.06;;;-0.91;100.00
4858;BME280;58975;51.978;8.472;2023-01-25T06:27:04;102174.38;;;-1.06;100.00
4858;BME280;58975;51.978;8.472;2023-01-25T06:32:00;102174.38;;;-1.12;100.00
4858;BME280;58975;51.978;8.472;2023-01-25T06:36:57;102176.97;;;-1.03;100.00
4858;BME280;58975;51.978;8.472;2023-01-25T06:41:53;102194.38;;;-1.05;100.00
4858;BME280;58975;51.978;8.472;2023-01-25T06:46:50;102197.00;;;-1.10;100.00
4858;BME280;58975;51.978;8.472;2023-01-25T06:51:46;102194.47;;;-1.22;100.00
4858;BME280;58975;51.978;8.472;2023-01-25T06:56:43;102200.53;;;-1.15;100.00
4858;BME280;58975;51.978;8.472;2023-01-25T07:01:39;102209.28;;;-1.25;100.00
4858;BME280;58975;51.978;8.472;2023-01-25T07:06:36;102206.66;;;-1.24;100.00
4858;BME280;58975;51.978;8.472;2023-01-25T07:11:33;102206.59;;;-1.03;100.00
4858;BME280;58975;51.978;8.472;2023-01-25T07:16:30;102205.66;;;-0.91;100.00
4858;BME280;58975;51.978;8.472;2023-01-25T07:21:32;102210.78;;;-0.73;100.00
4858;BME280;58975;51.978;8.472;2023-01-25T07:26:29;102205.50;;;-0.62;100.00
4858;BME280;58975;51.978;8.472;2023-01-25T07:31:26;102209.06;;;-0.74;100.00
4858;BME280;58975;51.978;8.472;2023-01-25T07:36:23;102206.41;;;-0.63;100.00
4858;BME280;58975;51.978;8.472;2023-01-25T07:41:20;102202.91;;;-0.64;100.00
4858;BME280;58975;51.978;8.472;2023-01-25T07:46:17;102203.00;;;-0.79;100.00
4858;BME280;58975;51.978;8.472;2023-01-25T07:51:14;102201.38;;;-1.13;100.00
4858;BME280;58975;51.978;8.472;2023-01-25T07:56:28;102202.34;;;-1.31;100.00
4858;BME280;58975;51.978;8.472;2023-01-25T08:01:26;102203.19;;;-1.27;100.00
4858;BME280;58975;51.978;8.472;2023-01-25T08:06:24;102201.47;;;-1.27;100.00
4858;BME280;58975;51.978;8.472;2023-01-25T08:11:25;102204.97;;;-1.35;100.00
4858;BME280;58975;51.978;8.472;2023-01-25T08:16:24;102204.13;;;-1.37;100.00
4858;BME280;58975;51.978;8.472;2023-01-25T08:21:22;102214.50;;;-1.19;100.00
4858;BME280;58975;51.978;8.472;2023-01-25T08:26:20;102205.81;;;-1.30;100.00
4858;BME280;58975;51.978;8.472;2023-01-25T08:31:20;102199.75;;;-1.35;100.00
4858;BME280;58975;51.978;8.472;2023-01-25T08:36:17;102199.69;;;-1.20;100.00
4858;BME280;58975;51.978;8.472;2023-01-25T08:41:16;102203.16;;;-1.21;100.00
4858;BME280;58975;51.978;8.472;2023-01-25T08:46:15;102197.94;;;-1.15;100.00
4858;BME280;58975;51.978;8.472;2023-01-25T08:51:14;102191.03;;;-1.34;100.00
4858;BME280;58975;51.978;8.472;2023-01-25T08:56:12;102193.66;;;-1.37;100.00
4858;BME280;58975;51.978;8.472;2023-01-25T09:01:11;102187.56;;;-1.39;100.00
4858;BME280;58975;51.978;8.472;2023-01-25T09:06:09;102188.44;;;-1.37;100.00
4858;BME280;58975;51.978;8.472;2023-01-25T09:11:08;102187.53;;;-1.30;100.00
4858;BME280;58975;51.978;8.472;2023-01-25T09:16:07;102191.00;;;-1.31;100.00
4858;BME280;58975;51.978;8.472;2023-01-25T09:21:10;102192.69;;;-1.15;100.00
4858;BME280;58975;51.978;8.472;2023-01-25T09:26:08;102189.25;;;-1.23;100.00
4858;BME280;58975;51.978;8.472;2023-01-25T09:31:05;102185.81;;;-1.39;100.00
4858;BME280;58975;51.978;8.472;2023-01-25T09:36:16;102183.22;;;-1.37;100.00
4858;BME280;58975;51.978;8.472;2023-01-25T09:46:42;102185.75;;;-1.22;100.00
4858;BME280;58975;51.978;8.472;2023-01-25T09:56:55;102168.34;;;-1.22;100.00
4858;BME280;58975;51.978;8.472;2023-01-25T10:02:04;102167.44;;;-1.25;100.00
4858;BME280;58975;51.978;8.472;2023-01-25T10:07:21;102174.44;;;-1.26;100.00
4858;BME280;58975;51.978;8.472;2023-01-25T10:12:22;102165.84;;;-1.58;100.00
4858;BME280;58975;51.978;8.472;2023-01-25T10:17:37;102163.22;;;-1.63;100.00
4858;BME280;58975;51.978;8.472;2023-01-25T10:22:43;102171.06;;;-1.58;100.00
4858;BME280;58975;51.978;8.472;2023-01-25T10:28:19;102158.88;;;-1.64;100.00
4858;BME280;58975;51.978;8.472;2023-01-25T10:33:20;102141.44;;;-1.50;100.00
4858;BME280;58975;51.978;8.472;2023-01-25T10:38:33;102145.75;;;-1.38;100.00
4858;BME280;58975;51.978;8.472;2023-01-25T10:43:31;102134.41;;;-1.29;100.00
4858;BME280;58975;51.978;8.472;2023-01-25T10:48:33;102133.50;;;-1.33;100.00
4858;BME280;58975;51.978;8.472;2023-01-25T10:53:37;102127.38;;;-1.23;100.00
4858;BME280;58975;51.978;8.472;2023-01-25T10:58:41;102115.28;;;-1.47;100.00
4858;BME280;58975;51.978;8.472;2023-01-25T11:03:40;102112.69;;;-1.53;100.00
4858;BME280;58975;51.978;8.472;2023-01-25T11:08:40;102101.41;;;-1.59;100.00
4858;BME280;58975;51.978;8.472;2023-01-25T11:13:39;102090.16;;;-1.82;100.00
4858;BME280;58975;51.978;8.472;2023-01-25T11:18:36;102074.47;;;-1.78;100.00
4858;BME280;58975;51.978;8.472;2023-01-25T11:23:32;102059.66;;;-1.65;100.00
4858;BME280;58975;51.978;8.472;2023-01-25T11:28:29;102056.13;;;-1.60;100.00
4858;BME280;58975;51.978;8.472;2023-01-25T11:33:26;102047.41;;;-1.59;100.00
4858;BME280;58975;51.978;8.472;2023-01-25T11:38:23;102042.25;;;-1.69;100.00
4858;BME280;58975;51.978;8.472;2023-01-25T11:43:41;102025.72;;;-1.73;100.00
4858;BME280;58975;51.978;8.472;2023-01-25T12:20:27;101947.50;;;-2.08;100.00
4858;BME280;58975;51.978;8.472;2023-01-25T12:30:44;101932.72;;;-2.07;100.00
4858;BME280;58975;51.978;8.472;2023-01-25T12:35:51;101912.72;;;-2.05;100.00
4858;BME280;58975;51.978;8.472;2023-01-25T12:45:50;101890.88;;;-1.92;100.00
4858;BME280;58975;51.978;8.472;2023-01-25T12:50:53;101873.44;;;-1.81;100.00
4858;BME280;58975;51.978;8.472;2023-01-25T12:55:51;101861.22;;;-1.77;100.00
4858;BME280;58975;51.978;8.472;2023-01-25T13:00:56;101849.00;;;-1.74;100.00
4858;BME280;58975;51.978;8.472;2023-01-25T13:11:20;101823.75;;;-1.75;100.00
4858;BME280;58975;51.978;8.472;2023-01-25T13:21:45;101825.56;;;-1.83;100.00
4858;BME280;58975;51.978;8.472;2023-01-25T13:31:49;101803.03;;;-1.99;100.00
4858;BME280;58975;51.978;8.472;2023-01-25T13:36:52;101789.34;;;-2.31;100.00
4858;BME280;58975;51.978;8.472;2023-01-25T13:47:10;101780.69;;;-2.43;100.00
4858;BME280;58975;51.978;8.472;2023-01-25T13:52:10;101781.53;;;-2.34;100.00
4858;BME280;58975;51.978;8.472;2023-01-25T13:57:20;101776.19;;;-2.16;100.00
4858;BME280;58975;51.978;8.472;2023-01-25T14:02:19;101763.13;;;-2.12;100.00
4858;BME280;58975;51.978;8.472;2023-01-25T14:07:18;101758.72;;;-2.07;100.00
4858;BME280;58975;51.978;8.472;2023-01-25T14:12:22;101763.03;;;-2.01;100.00
4858;BME280;58975;51.978;8.472;2023-01-25T14:17:25;101751.03;;;-2.26;100.00
4858;BME280;58975;51.978;8.472;2023-01-25T14:27:23;101752.84;;;-2.38;100.00
4858;BME280;58975;51.978;8.472;2023-01-25T14:32:21;101751.19;;;-2.48;100.00
4858;BME280;58975;51.978;8.472;2023-01-25T14:37:21;101758.19;;;-2.59;100.00
4858;BME280;58975;51.978;8.472;2023-01-25T14:42:17;101751.19;;;-2.54;100.00
4858;BME280;58975;51.978;8.472;2023-01-25T14:52:25;101738.22;;;-2.64;100.00
4858;BME280;58975;51.978;8.472;2023-01-25T14:57:36;101730.22;;;-2.39;100.00
4858;BME280;58975;51.978;8.472;2023-01-25T15:02:48;101720.56;;;-2.20;100.00
4858;BME280;58975;51.978;8.472;2023-01-25T15:07:51;101724.88;;;-2.17;100.00
4858;BME280;58975;51.978;8.472;2023-01-25T15:13:24;101704.09;;;-2.29;100.00
4858;BME280;58975;51.978;8.472;2023-01-25T15:18:53;101698.00;;;-2.28;100.00
4858;BME280;58975;51.978;8.472;2023-01-25T15:23:51;101693.66;;;-2.29;100.00
4858;BME280;58975;51.978;8.472;2023-01-25T15:28:48;101691.16;;;-2.43;100.00
4858;BME280;58975;51.978;8.472;2023-01-25T15:33:45;101679.03;;;-2.53;100.00
4858;BME280;58975;51.978;8.472;2023-01-25T15:38:42;101688.69;;;-2.66;100.00
4858;BME280;58975;51.978;8.472;2023-01-25T15:43:38;101680.00;;;-2.63;100.00
4858;BME280;58975;51.978;8.472;2023-01-25T15:48:37;101666.91;;;-2.62;100.00
4858;BME280;58975;51.978;8.472;2023-01-25T15:53:34;101667.88;;;-2.73;100.00
4858;BME280;58975;51.978;8.472;2023-01-25T15:58:39;101665.31;;;-2.79;100.00
4858;BME280;58975;51.978;8.472;2023-01-25T16:03:36;101662.69;;;-2.81;100.00
4858;BME280;58975;51.978;8.472;2023-01-25T16:08:36;101660.97;;;-2.85;100.00
4858;BME280;58975;51.978;8.472;2023-01-25T16:13:32;101659.25;;;-2.83;100.00
4858;BME280;58975;51.978;8.472;2023-01-25T16:18:29;101654.84;;;-2.78;100.00
4858;BME280;58975;51.978;8.472;2023-01-25T16:23:25;101656.59;;;-2.75;100.00
4858;BME280;58975;51.978;8.472;2023-01-25T16:28:21;101645.38;;;-2.88;100.00
4858;BME280;58975;51.978;8.472;2023-01-25T16:33:18;101641.91;;;-2.87;100.00
4858;BME280;58975;51.978;8.472;2023-01-25T16:38:19;101621.09;;;-2.95;100.00
4858;BME280;58975;51.978;8.472;2023-01-25T16:43:15;101624.47;;;-2.79;100.00
4858;BME280;58975;51.978;8.472;2023-01-25T16:48:12;101613.19;;;-2.86;100.00
4858;BME280;58975;51.978;8.472;2023-01-25T16:53:11;101609.78;;;-2.91;100.00
4858;BME280;58975;51.978;8.472;2023-01-25T16:58:07;101606.16;;;-2.73;100.00
4858;BME280;58975;51.978;8.472;2023-01-25T17:03:03;101588.78;;;-2.71;100.00
4858;BME280;58975;51.978;8.472;2023-01-25T17:08:01;101588.75;;;-2.69;100.00
4858;BME280;58975;51.978;8.472;2023-01-25T17:12:58;101606.16;;;-2.71;100.00
4858;BME280;58975;51.978;8.472;2023-01-25T17:17:54;101601.78;;;-2.69;100.00
4858;BME280;58975;51.978;8.472;2023-01-25T17:22:50;101578.34;;;-2.72;100.00
4858;BME280;58975;51.978;8.472;2023-01-25T17:27:47;101578.34;;;-2.72;100.00
4858;BME280;58975;51.978;8.472;2023-01-25T17:32:43;101564.44;;;-2.71;100.00
4858;BME280;58975;51.978;8.472;2023-01-25T17:37:39;101555.72;;;-2.70;100.00
4858;BME280;58975;51.978;8.472;2023-01-25T17:42:36;101558.47;;;-2.86;100.00
4858;BME280;58975;51.978;8.472;2023-01-25T17:47:32;101552.41;;;-2.89;100.00
4858;BME280;58975;51.978;8.472;2023-01-25T17:52:30;101562.84;;;-2.94;100.00
4858;BME280;58975;51.978;8.472;2023-01-25T17:57:29;101578.50;;;-2.92;100.00
4858;BME280;58975;51.978;8.472;2023-01-25T18:02:26;101574.22;;;-2.99;100.00
4858;BME280;58975;51.978;8.472;2023-01-25T18:07:23;101568.03;;;-2.89;100.00
4858;BME280;58975;51.978;8.472;2023-01-25T18:12:20;101545.50;;;-2.96;100.00
4858;BME280;58975;51.978;8.472;2023-01-25T18:17:16;101548.16;;;-3.05;100.00
4858;BME280;58975;51.978;8.472;2023-01-25T18:22:13;101534.28;;;-3.04;100.00
4858;BME280;58975;51.978;8.472;2023-01-25T18:27:21;101512.63;;;-3.12;100.00
4858;BME280;58975;51.978;8.472;2023-01-25T18:32:18;101511.72;;;-3.08;100.00
4858;BME280;58975;51.978;8.472;2023-01-25T18:37:15;101509.16;;;-3.16;100.00
4858;BME280;58975;51.978;8.472;2023-01-25T18:42:16;101511.81;;;-3.23;100.00
4858;BME280;58975;51.978;8.472;2023-01-25T18:47:17;101509.16;;;-3.17;100.00
4858;BME280;58975;51.978;8.472;2023-01-25T18:52:16;101498.75;;;-3.14;100.00
4858;BME280;58975;51.978;8.472;2023-01-25T18:57:13;101488.38;;;-3.23;100.00
4858;BME280;58975;51.978;8.472;2023-01-25T19:02:11;101477.94;;;-3.20;100.00
4858;BME280;58975;51.978;8.472;2023-01-25T19:07:08;101467.44;;;-3.13;100.00
4858;BME280;58975;51.978;8.472;2023-01-25T19:12:05;101464.72;;;-2.95;100.00
4858;BME280;58975;51.978;8.472;2023-01-25T19:17:02;101457.56;;;-2.73;100.00
4858;BME280;58975;51.978;8.472;2023-01-25T19:21:59;101449.22;;;-3.11;100.00
4858;BME280;58975;51.978;8.472;2023-01-25T19:26:56;101446.66;;;-3.20;100.00
4858;BME280;58975;51.978;8.472;2023-01-25T19:31:52;101442.38;;;-3.27;100.00
4858;BME280;58975;51.978;8.472;2023-01-25T19:36:49;101419.03;;;-3.38;100.00
4858;BME280;58975;51.978;8.472;2023-01-25T19:41:45;101414.66;;;-3.36;100.00
4858;BME280;58975;51.978;8.472;2023-01-25T19:46:42;101416.34;;;-3.27;100.00
4858;BME280;58975;51.978;8.472;2023-01-25T19:51:40;101398.09;;;-3.29;100.00
4858;BME280;58975;51.978;8.472;2023-01-25T19:56:40;101394.53;;;-3.16;100.00
4858;BME280;58975;51.978;8.472;2023-01-25T20:01:37;101396.16;;;-3.06;100.00
4858;BME280;58975;51.978;8.472;2023-01-25T20:06:37;101381.53;;;-3.20;100.00
4858;BME280;58975;51.978;8.472;2023-01-25T20:11:33;101374.50;;;-3.08;100.00
4858;BME280;58975;51.978;8.472;2023-01-25T20:16:31;101377.25;;;-3.24;100.00
4858;BME280;58975;51.978;8.472;2023-01-25T20:21:29;101366.03;;;-3.29;100.00
4858;BME280;58975;51.978;8.472;2023-01-25T20:26:28;101362.63;;;-3.38;100.00
4858;BME280;58975;51.978;8.472;2023-01-25T20:31:28;101351.19;;;-3.23;100.00
4858;BME280;58975;51.978;8.472;2023-01-25T20:36:26;101349.53;;;-3.31;100.00
4858;BME280;58975;51.978;8.472;2023-01-25T20:41:24;101350.47;;;-3.39;100.00
4858;BME280;58975;51.978;8.472;2023-01-25T20:46:20;101354.81;;;-3.38;100.00
4858;BME280;58975;51.978;8.472;2023-01-25T20:51:17;101357.34;;;-3.30;100.00
4858;BME280;58975;51.978;8.472;2023-01-25T20:56:15;101335.66;;;-3.37;100.00
4858;BME280;58975;51.978;8.472;2023-01-25T21:01:20;101344.31;;;-3.31;100.00
4858;BME280;58975;51.978;8.472;2023-01-25T21:06:17;101341.75;;;-3.35;100.00
4858;BME280;58975;51.978;8.472;2023-01-25T21:11:14;101348.69;;;-3.33;100.00
4858;BME280;58975;51.978;8.472;2023-01-25T21:16:19;101341.72;;;-3.31;100.00
4858;BME280;58975;51.978;8.472;2023-01-25T21:21:24;101332.16;;;-3.31;100.00
4858;BME280;58975;51.978;8.472;2023-01-25T21:26:28;101332.97;;;-3.24;100.00
4858;BME280;58975;51.978;8.472;2023-01-25T21:31:32;101317.28;;;-3.18;100.00
4858;BME280;58975;51.978;8.472;2023-01-25T21:36:29;101316.38;;;-3.16;100.00
4858;BME280;58975;51.978;8.472;2023-01-25T21:41:28;101310.34;;;-3.18;100.00
4858;BME280;58975;51.978;8.472;2023-01-25T21:46:26;101304.13;;;-3.06;100.00
4858;BME280;58975;51.978;8.472;2023-01-25T21:51:23;101310.25;;;-3.10;100.00
4858;BME280;58975;51.978;8.472;2023-01-25T21:56:32;101308.56;;;-3.17;100.00
4858;BME280;58975;51.978;8.472;2023-01-25T22:01:28;101308.59;;;-3.20;100.00
4858;BME280;58975;51.978;8.472;2023-01-25T22:06:25;101317.28;;;-3.21;100.00
4858;BME280;58975;51.978;8.472;2023-01-25T22:11:22;101306.06;;;-3.26;100.00
4858;BME280;58975;51.978;8.472;2023-01-25T22:16:19;101316.41;;;-3.20;100.00
4858;BME280;58975;51.978;8.472;2023-01-25T22:21:23;101319.94;;;-3.24;100.00
4858;BME280;58975;51.978;8.472;2023-01-25T22:26:22;101321.66;;;-3.23;100.00
4858;BME280;58975;51.978;8.472;2023-01-25T22:31:22;101319.22;;;-3.39;100.00
4858;BME280;58975;51.978;8.472;2023-01-25T22:36:20;101306.97;;;-3.32;100.00
4858;BME280;58975;51.978;8.472;2023-01-25T22:41:19;101305.22;;;-3.28;100.00
4858;BME280;58975;51.978;8.472;2023-01-25T22:46:18;101287.88;;;-3.31;100.00
4858;BME280;58975;51.978;8.472;2023-01-25T22:51:17;101275.59;;;-3.20;100.00
4858;BME280;58975;51.978;8.472;2023-01-25T22:56:23;101279.13;;;-3.22;100.00
4858;BME280;58975;51.978;8.472;2023-01-25T23:01:22;101265.19;;;-3.21;100.00
4858;BME280;58975;51.978;8.472;2023-01-25T23:06:22;101259.22;;;-3.31;100.00
4858;BME280;58975;51.978;8.472;2023-01-25T23:11:22;101259.16;;;-3.25;100.00
4858;BME280;58975;51.978;8.472;2023-01-25T23:16:19;101248.81;;;-3.31;100.00
4858;BME280;58975;51.978;8.472;2023-01-25T23:21:18;101244.50;;;-3.33;100.00
4858;BME280;58975;51.978;8.472;2023-01-25T23:26:15;101225.31;;;-3.26;100.00
4858;BME280;58975;51.978;8.472;2023-01-25T23:31:11;101231.38;;;-3.23;100.00
4858;BME280;58975;51.978;8.472;2023-01-25T23:36:16;101226.97;;;-3.18;100.00
4858;BME280;58975;51.978;8.472;2023-01-25T23:41:14;101213.22;;;-3.30;100.00
4858;BME280;58975;51.978;8.472;2023-01-25T23:46:11;101215.78;;;-3.27;100.00
4858;BME280;58975;51.978;8.472;2023-01-25T23:51:12;101214.94;;;-3.29;100.00
4858;BME280;58975;51.978;8.472;2023-01-25T23:56:12;101194.00;;;-3.20;100.00
